Airfield :
LOGIN :

Register | Disclaimer

   EN    FR    IT 

 










Legend :    VFR   Marginal VFR   IFR   Intensive IFR   Very Intensive IFR
Visi :
Ceiling :
>= 8 km
>= 3000ft
5 to 8 km
1000 to 3000 ft
1500m to 5 km
500 to 1000 ft
800 to 1500m
200 to 500 ft
< 800m
< 200 ft
Symbols :   Thunderstorms  Fog  Heavy snow  Heavy precipitations  Wind > 20 kt
SIGMETs :     Misc.  Thunderstorms  Icing  Turbulence  Mountain Waves  Volcanic Ashes







- Airport Elevation : 1470 ft


LSMD - Dubendorf Military

CURRENT METAR :
  • 181550Z AUTO 28016G33KT 230V320 9999NDV FEW034 SCT046 OVC067 08/03 Q1008 RMK

EXPIRED METARs :
  • 181450Z 28015G26KT 230V320 9999 FEW033 BKN045 08/02 Q1009 RMK BLU
  • 181350Z 27011KT 230V330 9999 -SHRA SCT028 BKN040 07/03 Q1009 RMK BLU
  • 181250Z 27011G27KT 220V340 9999 FEW026 BKN042 OVC069 07/02 Q1010 RMK BLU

Expired Forecast.
No reported NOTAMs for that airfield.
1 SIGMET reported for the Switzerland FIR (LSAS) :
 
Severe turbulence
LSAS SIGMET 3 VALID 181500/181800 LSZH
LSAS SWITZERLAND FIR SEV TURB FCST N OF LINE N4557 E00645 - N4705 E01007 3000FT/FL150 STNR NC=



MET'MAP, your aeronautical weather chart ! - Copyright ORBIFLY December 2007 - Disclaimer

ORBIFLY MET'MAP TEAM :

Programming & Development : Alexandra Zaïnal
Concept & Development : Baudouin d'Aumeries
Co-Development & Prog : Marc-Olivier Méhu
Technical & hardware support : Manuel Goepfert

Contact : metmap@orbifly.com




SOURCES & CREDITS :

   NOAA